<?xml version="1.0" encoding="UTF-8" standalone="no" ?>
<gpx xmlns="http://www.topografix.com/GPX/1/1" xmlns:xsi="http://www.w3.org/2001/XMLSchema-instance" xsi:schemaLocation="http://www.topografix.com/GPX/1/1 http://www.topografix.com/GPX/1/1/gpx.xsd" version="1.1" creator="VisuGPX - https://www.visugpx.com">
  <metadata>
    <name>Tour du bourg de Bignan 6 mai 2019 09:48:40</name>
    <desc><![CDATA[Le circuit correspond au parcours proposé par la mairie ( circuit court) ]]></desc>
  </metadata>
  <wpt lat="47.88012" lon="-2.77047">
    <ele>182.37</ele>
    <name><![CDATA[3'27 km sentier]]></name>
    <desc><![CDATA[name=3'27 km sentier
description=Coordonnées: 47.88012, -2.770467
Altitude: 182 m
Durée: 6 mai 2019 10:43:57
timestamp=2019-05-06T08:43:57.000Z
comment=
visited=1]]></desc>
  </wpt>
  <wpt lat="47.87824" lon="-2.77424">
    <ele>163.43</ele>
    <name><![CDATA[depart place1 du 9 mars62]]></name>
    <desc><![CDATA[name=depart place1 du 9 mars62
description=Coordonnées: 47.878242, -2.7742407
Altitude: 163 m
Durée: 6 mai 2019 09:48:40
timestamp=2019-05-06T07:48:40.000Z
comment=les marques sont violettes
visited=1]]></desc>
  </wpt>
  <wpt lat="47.87575" lon="-2.76622">
    <ele>146</ele>
    <name><![CDATA[espace arboré 2,6 km ]]></name>
    <desc><![CDATA[name=espace arboré 2,6 km 
description=Coordonnées: 47.875748, -2.7662232
Altitude: 146 m
Durée: 6 mai 2019 10:33:19
timestamp=2019-05-06T08:33:19.000Z
comment=souvenir français 2015
visited=1]]></desc>
  </wpt>
  <wpt lat="47.87823" lon="-2.77423">
    <ele>124.1</ele>
    <name><![CDATA[fin circuit]]></name>
    <desc><![CDATA[name=fin circuit
description=Coordonnées: 47.87824, -2.7742355
Altitude: 174 m
Durée: 6 mai 2019 11:08:05
timestamp=2019-05-06T09:08:05.000Z
comment=distance parcourue   4,75 km
visited=1]]></desc>
  </wpt>
  <wpt lat="47.88335" lon="-2.77183">
    <ele>152.49</ele>
    <name><![CDATA[lavoir a droite 3,67 km]]></name>
    <desc><![CDATA[name=lavoir a droite 3,67 km
description=Coordonnées: 47.88335, -2.771832
Altitude: 152 m
Durée: 6 mai 2019 10:50:34
timestamp=2019-05-06T08:50:34.000Z
comment=
visited=1]]></desc>
  </wpt>
  <wpt lat="47.87695" lon="-2.77044">
    <ele>162.09</ele>
    <name><![CDATA[lavoir près aire jeu 2',05 km]]></name>
    <desc><![CDATA[name=lavoir près aire jeu 2',05 km
description=Coordonnées: 47.876945, -2.7704444
Altitude: 162 m
Durée: 6 mai 2019 10:24:10
timestamp=2019-05-06T08:24:10.000Z
comment=
visited=1]]></desc>
  </wpt>
  <wpt lat="47.88092" lon="-2.77085">
    <ele>180.18</ele>
    <name><![CDATA[marque violette cimetière 3,37 km]]></name>
    <desc><![CDATA[name=marque violette cimetière 3,37 km
description=Coordonnées: 47.880917, -2.7708495
Altitude: 180 m
Durée: 6 mai 2019 10:46:07
timestamp=2019-05-06T08:46:07.000Z
comment=
visited=1]]></desc>
  </wpt>
  <wpt lat="47.88178" lon="-2.77597">
    <ele>155.69</ele>
    <name><![CDATA[monument stade jean Daniel ]]></name>
    <desc><![CDATA[name=monument stade jean Daniel 
description=Coordonnées: 47.881783, -2.7759721
Altitude: 156 m
Durée: 6 mai 2019 10:57:44
timestamp=2019-05-06T08:57:44.000Z
comment=4,13 km
visited=1]]></desc>
  </wpt>
  <wpt lat="47.87281" lon="-2.77781">
    <ele>178.13</ele>
    <name><![CDATA[Pd égal 950 moint sur la carte]]></name>
    <desc><![CDATA[name=Pd égal 950 moint sur la carte
description=Coordonnées: 47.87281, -2.7778137
Altitude: 178 m
Durée: 6 mai 2019 10:07:34
timestamp=2019-05-06T08:07:34.000Z
comment=
visited=1]]></desc>
  </wpt>
  <wpt lat="47.87635" lon="-2.77584">
    <ele>184.3</ele>
    <name><![CDATA[prendre chemin]]></name>
    <desc><![CDATA[name=prendre chemin
description=Coordonnées: 47.876354, -2.775843
Altitude: 184 m
Durée: 6 mai 2019 09:55:52
timestamp=2019-05-06T07:55:52.000Z
comment= quitter residence Charles le Quinttec
visited=1]]></desc>
  </wpt>
  <wpt lat="47.87281" lon="-2.77781">
    <ele>178.13</ele>
    <name><![CDATA[Prendre sentier après avoir traverser route]]></name>
    <desc><![CDATA[name=Prendre sentier après avoir traverser route
description=Coordonnées: 47.87281, -2.7778137
Altitude: 178 m
Durée: 6 mai 2019 10:07:34
timestamp=2019-05-06T08:07:34.000Z
comment=aller jusqu'à la croix de Treulliec
visited=1]]></desc>
  </wpt>
  <wpt lat="47.87788" lon="-2.77491">
    <ele>184.08</ele>
    <name><![CDATA[rue Anne de Bretagne vers résidence les portes]]></name>
    <desc><![CDATA[name=rue Anne de Bretagne vers résidence les portes
description=Coordonnées: 47.87788, -2.7749116
Altitude: 184 m
Durée: 6 mai 2019 09:52:13
timestamp=2019-05-06T07:52:13.000Z
comment=
visited=1]]></desc>
  </wpt>
  <wpt lat="47.8783" lon="-2.77026">
    <ele>160.5</ele>
    <name><![CDATA[rue kersimon 3,03km]]></name>
    <desc><![CDATA[name=rue kersimon 3,03km
description=Coordonnées: 47.878296, -2.770263
Altitude: 160 m
Durée: 6 mai 2019 10:39:46
timestamp=2019-05-06T08:39:46.000Z
comment=
visited=1]]></desc>
  </wpt>
  <wpt lat="47.87453" lon="-2.76831">
    <ele>166.93</ele>
    <name><![CDATA[sentier 2,38 ]]></name>
    <desc><![CDATA[name=sentier 2,38 
description=Coordonnées: 47.87453, -2.768305
Altitude: 167 m
Durée: 6 mai 2019 10:29:40
timestamp=2019-05-06T08:29:40.000Z
comment=
visited=1]]></desc>
  </wpt>
  <wpt lat="47.88092" lon="-2.77604">
    <ele>164.14</ele>
    <name><![CDATA[tourner droite ]]></name>
    <desc><![CDATA[name=tourner droite 
description=Coordonnées: 47.88092, -2.776037
Altitude: 164 m
Durée: 6 mai 2019 11:00:15
timestamp=2019-05-06T09:00:15.000Z
comment=marque violette 4,13 km
visited=1]]></desc>
  </wpt>
  <trk>
    <name><![CDATA[6 mai 2019 09:48:40]]></name>
    <desc><![CDATA[name=6 mai 2019 09:48:40
styleUrl=#track
styleHash=-34f943b1
stroke=#0000ff
stroke-opacity=1
stroke-width=4
comment=
activity=0]]></desc>
    <trkseg>
      <trkpt lat="47.87824" lon="-2.77424">
        <ele>163.49</ele>
        <time>2019-05-06T07:48:42.000Z</time>
      </trkpt>
      <trkpt lat="47.87823" lon="-2.77438">
        <ele>172.12</ele>
        <time>2019-05-06T07:50:17.000Z</time>
      </trkpt>
      <trkpt lat="47.87825" lon="-2.77453">
        <ele>175.51</ele>
        <time>2019-05-06T07:50:29.000Z</time>
      </trkpt>
      <trkpt lat="47.87818" lon="-2.77463">
        <ele>177.95</ele>
        <time>2019-05-06T07:50:39.000Z</time>
      </trkpt>
      <trkpt lat="47.87809" lon="-2.77465">
        <ele>176.51</ele>
        <time>2019-05-06T07:50:52.000Z</time>
      </trkpt>
      <trkpt lat="47.87799" lon="-2.77467">
        <ele>172.68</ele>
        <time>2019-05-06T07:51:02.000Z</time>
      </trkpt>
      <trkpt lat="47.8779" lon="-2.77468">
        <ele>174.12</ele>
        <time>2019-05-06T07:51:10.000Z</time>
      </trkpt>
      <trkpt lat="47.8778" lon="-2.77467">
        <ele>173.89</ele>
        <time>2019-05-06T07:51:19.000Z</time>
      </trkpt>
      <trkpt lat="47.87784" lon="-2.7748">
        <ele>179.59</ele>
        <time>2019-05-06T07:51:35.000Z</time>
      </trkpt>
      <trkpt lat="47.87789" lon="-2.77492">
        <ele>183.68</ele>
        <time>2019-05-06T07:51:46.000Z</time>
      </trkpt>
      <trkpt lat="47.87785" lon="-2.77505">
        <ele>181.16</ele>
        <time>2019-05-06T07:53:20.000Z</time>
      </trkpt>
      <trkpt lat="47.87777" lon="-2.77513">
        <ele>178.4</ele>
        <time>2019-05-06T07:53:27.000Z</time>
      </trkpt>
      <trkpt lat="47.87767" lon="-2.77517">
        <ele>179.45</ele>
        <time>2019-05-06T07:53:34.000Z</time>
      </trkpt>
      <trkpt lat="47.87759" lon="-2.77525">
        <ele>180.13</ele>
        <time>2019-05-06T07:53:43.000Z</time>
      </trkpt>
      <trkpt lat="47.8775" lon="-2.77531">
        <ele>178</ele>
        <time>2019-05-06T07:53:53.000Z</time>
      </trkpt>
      <trkpt lat="47.87742" lon="-2.77537">
        <ele>178.7</ele>
        <time>2019-05-06T07:54:00.000Z</time>
      </trkpt>
      <trkpt lat="47.87733" lon="-2.77545">
        <ele>181.13</ele>
        <time>2019-05-06T07:54:10.000Z</time>
      </trkpt>
      <trkpt lat="47.87724" lon="-2.77548">
        <ele>181.88</ele>
        <time>2019-05-06T07:54:19.000Z</time>
      </trkpt>
      <trkpt lat="47.87714" lon="-2.77549">
        <ele>185.92</ele>
        <time>2019-05-06T07:54:28.000Z</time>
      </trkpt>
      <trkpt lat="47.87705" lon="-2.77551">
        <ele>188.51</ele>
        <time>2019-05-06T07:54:37.000Z</time>
      </trkpt>
      <trkpt lat="47.87696" lon="-2.77555">
        <ele>186.9</ele>
        <time>2019-05-06T07:54:44.000Z</time>
      </trkpt>
      <trkpt lat="47.87688" lon="-2.77561">
        <ele>185.73</ele>
        <time>2019-05-06T07:54:52.000Z</time>
      </trkpt>
      <trkpt lat="47.87679" lon="-2.77565">
        <ele>186.8</ele>
        <time>2019-05-06T07:54:59.000Z</time>
      </trkpt>
      <trkpt lat="47.87671" lon="-2.77571">
        <ele>186.4</ele>
        <time>2019-05-06T07:55:06.000Z</time>
      </trkpt>
      <trkpt lat="47.87662" lon="-2.77574">
        <ele>185.34</ele>
        <time>2019-05-06T07:55:13.000Z</time>
      </trkpt>
      <trkpt lat="47.87653" lon="-2.77578">
        <ele>182.71</ele>
        <time>2019-05-06T07:55:21.000Z</time>
      </trkpt>
      <trkpt lat="47.87645" lon="-2.77586">
        <ele>183.84</ele>
        <time>2019-05-06T07:55:29.000Z</time>
      </trkpt>
      <trkpt lat="47.87636" lon="-2.77587">
        <ele>184.19</ele>
        <time>2019-05-06T07:55:36.000Z</time>
      </trkpt>
      <trkpt lat="47.87627" lon="-2.77591">
        <ele>184.93</ele>
        <time>2019-05-06T07:56:52.000Z</time>
      </trkpt>
      <trkpt lat="47.87618" lon="-2.77597">
        <ele>191.05</ele>
        <time>2019-05-06T07:57:59.000Z</time>
      </trkpt>
      <trkpt lat="47.87611" lon="-2.77606">
        <ele>190.85</ele>
        <time>2019-05-06T07:58:08.000Z</time>
      </trkpt>
      <trkpt lat="47.87603" lon="-2.77615">
        <ele>192.6</ele>
        <time>2019-05-06T07:58:18.000Z</time>
      </trkpt>
      <trkpt lat="47.87595" lon="-2.77622">
        <ele>189.92</ele>
        <time>2019-05-06T07:58:26.000Z</time>
      </trkpt>
      <trkpt lat="47.87587" lon="-2.77629">
        <ele>191.32</ele>
        <time>2019-05-06T07:58:33.000Z</time>
      </trkpt>
      <trkpt lat="47.87578" lon="-2.77635">
        <ele>191.72</ele>
        <time>2019-05-06T07:58:42.000Z</time>
      </trkpt>
      <trkpt lat="47.8757" lon="-2.77641">
        <ele>192.57</ele>
        <time>2019-05-06T07:58:50.000Z</time>
      </trkpt>
      <trkpt lat="47.87561" lon="-2.77645">
        <ele>192.27</ele>
        <time>2019-05-06T07:58:57.000Z</time>
      </trkpt>
      <trkpt lat="47.87552" lon="-2.77652">
        <ele>195.66</ele>
        <time>2019-05-06T07:59:04.000Z</time>
      </trkpt>
      <trkpt lat="47.87543" lon="-2.77655">
        <ele>188.56</ele>
        <time>2019-05-06T07:59:11.000Z</time>
      </trkpt>
      <trkpt lat="47.87534" lon="-2.77655">
        <ele>193.78</ele>
        <time>2019-05-06T07:59:20.000Z</time>
      </trkpt>
      <trkpt lat="47.87525" lon="-2.77658">
        <ele>196.45</ele>
        <time>2019-05-06T07:59:30.000Z</time>
      </trkpt>
      <trkpt lat="47.87516" lon="-2.77663">
        <ele>191.17</ele>
        <time>2019-05-06T07:59:37.000Z</time>
      </trkpt>
      <trkpt lat="47.87507" lon="-2.77671">
        <ele>190.51</ele>
        <time>2019-05-06T07:59:48.000Z</time>
      </trkpt>
      <trkpt lat="47.87498" lon="-2.77673">
        <ele>192.82</ele>
        <time>2019-05-06T07:59:55.000Z</time>
      </trkpt>
      <trkpt lat="47.87489" lon="-2.77679">
        <ele>196.14</ele>
        <time>2019-05-06T08:00:03.000Z</time>
      </trkpt>
      <trkpt lat="47.87479" lon="-2.77681">
        <ele>196.83</ele>
        <time>2019-05-06T08:00:11.000Z</time>
      </trkpt>
      <trkpt lat="47.8747" lon="-2.77683">
        <ele>196.29</ele>
        <time>2019-05-06T08:00:19.000Z</time>
      </trkpt>
      <trkpt lat="47.8746" lon="-2.77686">
        <ele>194.59</ele>
        <time>2019-05-06T08:00:26.000Z</time>
      </trkpt>
      <trkpt lat="47.8745" lon="-2.77687">
        <ele>194.37</ele>
        <time>2019-05-06T08:00:36.000Z</time>
      </trkpt>
      <trkpt lat="47.87441" lon="-2.77687">
        <ele>193.04</ele>
        <time>2019-05-06T08:00:44.000Z</time>
      </trkpt>
      <trkpt lat="47.87431" lon="-2.77687">
        <ele>191.78</ele>
        <time>2019-05-06T08:00:54.000Z</time>
      </trkpt>
      <trkpt lat="47.87422" lon="-2.77686">
        <ele>187.4</ele>
        <time>2019-05-06T08:01:02.000Z</time>
      </trkpt>
      <trkpt lat="47.87413" lon="-2.77686">
        <ele>189.43</ele>
        <time>2019-05-06T08:01:09.000Z</time>
      </trkpt>
      <trkpt lat="47.87403" lon="-2.77684">
        <ele>192.95</ele>
        <time>2019-05-06T08:01:19.000Z</time>
      </trkpt>
      <trkpt lat="47.87393" lon="-2.77686">
        <ele>188.76</ele>
        <time>2019-05-06T08:01:25.000Z</time>
      </trkpt>
      <trkpt lat="47.87383" lon="-2.7769">
        <ele>185.53</ele>
        <time>2019-05-06T08:01:32.000Z</time>
      </trkpt>
      <trkpt lat="47.87374" lon="-2.7769">
        <ele>182.32</ele>
        <time>2019-05-06T08:01:51.000Z</time>
      </trkpt>
      <trkpt lat="47.87365" lon="-2.77696">
        <ele>179.89</ele>
        <time>2019-05-06T08:01:59.000Z</time>
      </trkpt>
      <trkpt lat="47.87358" lon="-2.77706">
        <ele>182.24</ele>
        <time>2019-05-06T08:02:09.000Z</time>
      </trkpt>
      <trkpt lat="47.8735" lon="-2.77715">
        <ele>184.02</ele>
        <time>2019-05-06T08:02:16.000Z</time>
      </trkpt>
      <trkpt lat="47.87342" lon="-2.77723">
        <ele>185.6</ele>
        <time>2019-05-06T08:02:23.000Z</time>
      </trkpt>
      <trkpt lat="47.87334" lon="-2.77732">
        <ele>185.92</ele>
        <time>2019-05-06T08:02:30.000Z</time>
      </trkpt>
      <trkpt lat="47.87328" lon="-2.77743">
        <ele>188.88</ele>
        <time>2019-05-06T08:02:39.000Z</time>
      </trkpt>
      <trkpt lat="47.87322" lon="-2.77753">
        <ele>191.32</ele>
        <time>2019-05-06T08:02:46.000Z</time>
      </trkpt>
      <trkpt lat="47.87317" lon="-2.77765">
        <ele>185.76</ele>
        <time>2019-05-06T08:02:54.000Z</time>
      </trkpt>
      <trkpt lat="47.8731" lon="-2.77774">
        <ele>183.85</ele>
        <time>2019-05-06T08:03:02.000Z</time>
      </trkpt>
      <trkpt lat="47.87302" lon="-2.77781">
        <ele>182.32</ele>
        <time>2019-05-06T08:03:15.000Z</time>
      </trkpt>
      <trkpt lat="47.87296" lon="-2.77791">
        <ele>182.09</ele>
        <time>2019-05-06T08:03:22.000Z</time>
      </trkpt>
      <trkpt lat="47.87292" lon="-2.77805">
        <ele>181.26</ele>
        <time>2019-05-06T08:03:42.000Z</time>
      </trkpt>
      <trkpt lat="47.87289" lon="-2.77818">
        <ele>182.98</ele>
        <time>2019-05-06T08:03:50.000Z</time>
      </trkpt>
      <trkpt lat="47.87285" lon="-2.77831">
        <ele>182.3</ele>
        <time>2019-05-06T08:03:58.000Z</time>
      </trkpt>
      <trkpt lat="47.87282" lon="-2.77845">
        <ele>180.68</ele>
        <time>2019-05-06T08:04:07.000Z</time>
      </trkpt>
      <trkpt lat="47.87279" lon="-2.77859">
        <ele>183.98</ele>
        <time>2019-05-06T08:04:15.000Z</time>
      </trkpt>
      <trkpt lat="47.87275" lon="-2.77871">
        <ele>184.98</ele>
        <time>2019-05-06T08:04:23.000Z</time>
      </trkpt>
      <trkpt lat="47.8727" lon="-2.77883">
        <ele>183.61</ele>
        <time>2019-05-06T08:04:30.000Z</time>
      </trkpt>
      <trkpt lat="47.87266" lon="-2.77896">
        <ele>183.3</ele>
        <time>2019-05-06T08:04:37.000Z</time>
      </trkpt>
      <trkpt lat="47.87261" lon="-2.77908">
        <ele>183.78</ele>
        <time>2019-05-06T08:04:44.000Z</time>
      </trkpt>
      <trkpt lat="47.87253" lon="-2.77919">
        <ele>182.9</ele>
        <time>2019-05-06T08:04:53.000Z</time>
      </trkpt>
      <trkpt lat="47.87248" lon="-2.77929">
        <ele>179.59</ele>
        <time>2019-05-06T08:05:04.000Z</time>
      </trkpt>
      <trkpt lat="47.87249" lon="-2.77915">
        <ele>180.98</ele>
        <time>2019-05-06T08:05:38.000Z</time>
      </trkpt>
      <trkpt lat="47.87257" lon="-2.77905">
        <ele>182.47</ele>
        <time>2019-05-06T08:05:47.000Z</time>
      </trkpt>
      <trkpt lat="47.87261" lon="-2.77892">
        <ele>177.97</ele>
        <time>2019-05-06T08:05:55.000Z</time>
      </trkpt>
      <trkpt lat="47.87266" lon="-2.77879">
        <ele>176.06</ele>
        <time>2019-05-06T08:06:04.000Z</time>
      </trkpt>
      <trkpt lat="47.8727" lon="-2.77865">
        <ele>177.06</ele>
        <time>2019-05-06T08:06:12.000Z</time>
      </trkpt>
      <trkpt lat="47.87273" lon="-2.77852">
        <ele>178.54</ele>
        <time>2019-05-06T08:06:19.000Z</time>
      </trkpt>
      <trkpt lat="47.87278" lon="-2.77838">
        <ele>177.18</ele>
        <time>2019-05-06T08:06:26.000Z</time>
      </trkpt>
      <trkpt lat="47.87282" lon="-2.77826">
        <ele>175.2</ele>
        <time>2019-05-06T08:06:32.000Z</time>
      </trkpt>
      <trkpt lat="47.87285" lon="-2.77812">
        <ele>179.53</ele>
        <time>2019-05-06T08:06:40.000Z</time>
      </trkpt>
      <trkpt lat="47.87286" lon="-2.77798">
        <ele>178.71</ele>
        <time>2019-05-06T08:06:49.000Z</time>
      </trkpt>
      <trkpt lat="47.87286" lon="-2.77784">
        <ele>176.74</ele>
        <time>2019-05-06T08:06:58.000Z</time>
      </trkpt>
      <trkpt lat="47.87277" lon="-2.77779">
        <ele>182.46</ele>
        <time>2019-05-06T08:09:15.000Z</time>
      </trkpt>
      <trkpt lat="47.8727" lon="-2.77769">
        <ele>181.35</ele>
        <time>2019-05-06T08:09:28.000Z</time>
      </trkpt>
      <trkpt lat="47.87268" lon="-2.77754">
        <ele>179.71</ele>
        <time>2019-05-06T08:09:40.000Z</time>
      </trkpt>
      <trkpt lat="47.87265" lon="-2.77741">
        <ele>181.26</ele>
        <time>2019-05-06T08:09:47.000Z</time>
      </trkpt>
      <trkpt lat="47.87265" lon="-2.77727">
        <ele>183.1</ele>
        <time>2019-05-06T08:09:55.000Z</time>
      </trkpt>
      <trkpt lat="47.87264" lon="-2.77713">
        <ele>182.54</ele>
        <time>2019-05-06T08:10:03.000Z</time>
      </trkpt>
      <trkpt lat="47.87261" lon="-2.77699">
        <ele>180.62</ele>
        <time>2019-05-06T08:10:12.000Z</time>
      </trkpt>
      <trkpt lat="47.87258" lon="-2.77685">
        <ele>179.16</ele>
        <time>2019-05-06T08:10:21.000Z</time>
      </trkpt>
      <trkpt lat="47.87251" lon="-2.77676">
        <ele>183.62</ele>
        <time>2019-05-06T08:10:30.000Z</time>
      </trkpt>
      <trkpt lat="47.87243" lon="-2.7767">
        <ele>180.73</ele>
        <time>2019-05-06T08:10:39.000Z</time>
      </trkpt>
      <trkpt lat="47.87236" lon="-2.7766">
        <ele>177.45</ele>
        <time>2019-05-06T08:10:46.000Z</time>
      </trkpt>
      <trkpt lat="47.87229" lon="-2.77651">
        <ele>175.15</ele>
        <time>2019-05-06T08:10:53.000Z</time>
      </trkpt>
      <trkpt lat="47.87221" lon="-2.77643">
        <ele>178.03</ele>
        <time>2019-05-06T08:11:01.000Z</time>
      </trkpt>
      <trkpt lat="47.87218" lon="-2.7763">
        <ele>179.38</ele>
        <time>2019-05-06T08:11:10.000Z</time>
      </trkpt>
      <trkpt lat="47.87212" lon="-2.7762">
        <ele>175.89</ele>
        <time>2019-05-06T08:11:18.000Z</time>
      </trkpt>
      <trkpt lat="47.87207" lon="-2.77608">
        <ele>173.31</ele>
        <time>2019-05-06T08:11:27.000Z</time>
      </trkpt>
      <trkpt lat="47.872" lon="-2.77599">
        <ele>167.85</ele>
        <time>2019-05-06T08:11:33.000Z</time>
      </trkpt>
      <trkpt lat="47.87199" lon="-2.77584">
        <ele>168.34</ele>
        <time>2019-05-06T08:11:39.000Z</time>
      </trkpt>
      <trkpt lat="47.87201" lon="-2.77571">
        <ele>166.28</ele>
        <time>2019-05-06T08:11:47.000Z</time>
      </trkpt>
      <trkpt lat="47.87205" lon="-2.77559">
        <ele>165.04</ele>
        <time>2019-05-06T08:11:55.000Z</time>
      </trkpt>
      <trkpt lat="47.87209" lon="-2.77546">
        <ele>163.77</ele>
        <time>2019-05-06T08:12:03.000Z</time>
      </trkpt>
      <trkpt lat="47.87215" lon="-2.77535">
        <ele>165.2</ele>
        <time>2019-05-06T08:12:09.000Z</time>
      </trkpt>
      <trkpt lat="47.87219" lon="-2.77522">
        <ele>164.8</ele>
        <time>2019-05-06T08:12:16.000Z</time>
      </trkpt>
      <trkpt lat="47.87225" lon="-2.77511">
        <ele>163.23</ele>
        <time>2019-05-06T08:12:23.000Z</time>
      </trkpt>
      <trkpt lat="47.87232" lon="-2.77502">
        <ele>167.14</ele>
        <time>2019-05-06T08:12:31.000Z</time>
      </trkpt>
      <trkpt lat="47.8724" lon="-2.77494">
        <ele>168.28</ele>
        <time>2019-05-06T08:12:39.000Z</time>
      </trkpt>
      <trkpt lat="47.87249" lon="-2.77491">
        <ele>164.84</ele>
        <time>2019-05-06T08:12:47.000Z</time>
      </trkpt>
      <trkpt lat="47.87259" lon="-2.7749">
        <ele>168.53</ele>
        <time>2019-05-06T08:12:55.000Z</time>
      </trkpt>
      <trkpt lat="47.87268" lon="-2.77487">
        <ele>168.36</ele>
        <time>2019-05-06T08:13:04.000Z</time>
      </trkpt>
      <trkpt lat="47.87278" lon="-2.77485">
        <ele>166.92</ele>
        <time>2019-05-06T08:13:12.000Z</time>
      </trkpt>
      <trkpt lat="47.87286" lon="-2.7748">
        <ele>167.93</ele>
        <time>2019-05-06T08:13:19.000Z</time>
      </trkpt>
      <trkpt lat="47.87296" lon="-2.77478">
        <ele>166.61</ele>
        <time>2019-05-06T08:13:26.000Z</time>
      </trkpt>
      <trkpt lat="47.87305" lon="-2.77474">
        <ele>158.81</ele>
        <time>2019-05-06T08:13:35.000Z</time>
      </trkpt>
      <trkpt lat="47.87313" lon="-2.7747">
        <ele>162.52</ele>
        <time>2019-05-06T08:13:41.000Z</time>
      </trkpt>
      <trkpt lat="47.87322" lon="-2.77464">
        <ele>159.65</ele>
        <time>2019-05-06T08:13:50.000Z</time>
      </trkpt>
      <trkpt lat="47.87331" lon="-2.77457">
        <ele>161.19</ele>
        <time>2019-05-06T08:13:58.000Z</time>
      </trkpt>
      <trkpt lat="47.87338" lon="-2.77448">
        <ele>159.52</ele>
        <time>2019-05-06T08:14:07.000Z</time>
      </trkpt>
      <trkpt lat="47.87346" lon="-2.77442">
        <ele>161.48</ele>
        <time>2019-05-06T08:14:17.000Z</time>
      </trkpt>
      <trkpt lat="47.87352" lon="-2.77431">
        <ele>162.49</ele>
        <time>2019-05-06T08:14:24.000Z</time>
      </trkpt>
      <trkpt lat="47.87355" lon="-2.77417">
        <ele>163.22</ele>
        <time>2019-05-06T08:14:31.000Z</time>
      </trkpt>
      <trkpt lat="47.87362" lon="-2.77406">
        <ele>164.87</ele>
        <time>2019-05-06T08:14:38.000Z</time>
      </trkpt>
      <trkpt lat="47.87368" lon="-2.77396">
        <ele>165.94</ele>
        <time>2019-05-06T08:14:46.000Z</time>
      </trkpt>
      <trkpt lat="47.87375" lon="-2.77388">
        <ele>166.95</ele>
        <time>2019-05-06T08:14:53.000Z</time>
      </trkpt>
      <trkpt lat="47.87383" lon="-2.7738">
        <ele>165.72</ele>
        <time>2019-05-06T08:15:02.000Z</time>
      </trkpt>
      <trkpt lat="47.87392" lon="-2.77384">
        <ele>167.79</ele>
        <time>2019-05-06T08:15:11.000Z</time>
      </trkpt>
      <trkpt lat="47.87397" lon="-2.77395">
        <ele>170.61</ele>
        <time>2019-05-06T08:15:18.000Z</time>
      </trkpt>
      <trkpt lat="47.87402" lon="-2.77407">
        <ele>172.89</ele>
        <time>2019-05-06T08:15:26.000Z</time>
      </trkpt>
      <trkpt lat="47.8741" lon="-2.77416">
        <ele>172.41</ele>
        <time>2019-05-06T08:15:34.000Z</time>
      </trkpt>
      <trkpt lat="47.87419" lon="-2.77417">
        <ele>173.72</ele>
        <time>2019-05-06T08:15:43.000Z</time>
      </trkpt>
      <trkpt lat="47.87428" lon="-2.77411">
        <ele>177.78</ele>
        <time>2019-05-06T08:15:52.000Z</time>
      </trkpt>
      <trkpt lat="47.87437" lon="-2.77407">
        <ele>175.81</ele>
        <time>2019-05-06T08:16:00.000Z</time>
      </trkpt>
      <trkpt lat="47.87439" lon="-2.77393">
        <ele>173.63</ele>
        <time>2019-05-06T08:16:09.000Z</time>
      </trkpt>
      <trkpt lat="47.8744" lon="-2.77378">
        <ele>172.35</ele>
        <time>2019-05-06T08:16:18.000Z</time>
      </trkpt>
      <trkpt lat="47.87448" lon="-2.77372">
        <ele>175.17</ele>
        <time>2019-05-06T08:16:26.000Z</time>
      </trkpt>
      <trkpt lat="47.87457" lon="-2.77366">
        <ele>172.01</ele>
        <time>2019-05-06T08:16:39.000Z</time>
      </trkpt>
      <trkpt lat="47.87465" lon="-2.77362">
        <ele>168.95</ele>
        <time>2019-05-06T08:16:48.000Z</time>
      </trkpt>
      <trkpt lat="47.87474" lon="-2.77356">
        <ele>181.03</ele>
        <time>2019-05-06T08:16:57.000Z</time>
      </trkpt>
      <trkpt lat="47.87483" lon="-2.77351">
        <ele>171.79</ele>
        <time>2019-05-06T08:17:06.000Z</time>
      </trkpt>
      <trkpt lat="47.87492" lon="-2.77348">
        <ele>166.52</ele>
        <time>2019-05-06T08:17:15.000Z</time>
      </trkpt>
      <trkpt lat="47.87502" lon="-2.77345">
        <ele>167.81</ele>
        <time>2019-05-06T08:17:22.000Z</time>
      </trkpt>
      <trkpt lat="47.87511" lon="-2.77342">
        <ele>171.4</ele>
        <time>2019-05-06T08:17:29.000Z</time>
      </trkpt>
      <trkpt lat="47.87521" lon="-2.77342">
        <ele>170.93</ele>
        <time>2019-05-06T08:17:37.000Z</time>
      </trkpt>
      <trkpt lat="47.87531" lon="-2.77342">
        <ele>169.36</ele>
        <time>2019-05-06T08:17:45.000Z</time>
      </trkpt>
      <trkpt lat="47.8754" lon="-2.77342">
        <ele>166.73</ele>
        <time>2019-05-06T08:17:53.000Z</time>
      </trkpt>
      <trkpt lat="47.87549" lon="-2.7734">
        <ele>169.62</ele>
        <time>2019-05-06T08:18:02.000Z</time>
      </trkpt>
      <trkpt lat="47.87558" lon="-2.77335">
        <ele>169.79</ele>
        <time>2019-05-06T08:18:11.000Z</time>
      </trkpt>
      <trkpt lat="47.87565" lon="-2.77324">
        <ele>177.64</ele>
        <time>2019-05-06T08:18:19.000Z</time>
      </trkpt>
      <trkpt lat="47.87572" lon="-2.77315">
        <ele>176.37</ele>
        <time>2019-05-06T08:18:26.000Z</time>
      </trkpt>
      <trkpt lat="47.87582" lon="-2.77311">
        <ele>171.44</ele>
        <time>2019-05-06T08:18:34.000Z</time>
      </trkpt>
      <trkpt lat="47.87591" lon="-2.77308">
        <ele>169.83</ele>
        <time>2019-05-06T08:18:41.000Z</time>
      </trkpt>
      <trkpt lat="47.876" lon="-2.77304">
        <ele>171.7</ele>
        <time>2019-05-06T08:18:48.000Z</time>
      </trkpt>
      <trkpt lat="47.8761" lon="-2.77304">
        <ele>173.58</ele>
        <time>2019-05-06T08:18:54.000Z</time>
      </trkpt>
      <trkpt lat="47.87619" lon="-2.77299">
        <ele>172.2</ele>
        <time>2019-05-06T08:19:01.000Z</time>
      </trkpt>
      <trkpt lat="47.87629" lon="-2.77294">
        <ele>170.64</ele>
        <time>2019-05-06T08:19:08.000Z</time>
      </trkpt>
      <trkpt lat="47.87638" lon="-2.77291">
        <ele>166.71</ele>
        <time>2019-05-06T08:19:19.000Z</time>
      </trkpt>
      <trkpt lat="47.87647" lon="-2.77285">
        <ele>165.84</ele>
        <time>2019-05-06T08:19:28.000Z</time>
      </trkpt>
      <trkpt lat="47.87656" lon="-2.77287">
        <ele>165.1</ele>
        <time>2019-05-06T08:19:37.000Z</time>
      </trkpt>
      <trkpt lat="47.87665" lon="-2.77292">
        <ele>168.24</ele>
        <time>2019-05-06T08:19:44.000Z</time>
      </trkpt>
      <trkpt lat="47.87673" lon="-2.77297">
        <ele>166.65</ele>
        <time>2019-05-06T08:19:51.000Z</time>
      </trkpt>
      <trkpt lat="47.87682" lon="-2.77299">
        <ele>167.99</ele>
        <time>2019-05-06T08:20:00.000Z</time>
      </trkpt>
      <trkpt lat="47.87692" lon="-2.77298">
        <ele>172.43</ele>
        <time>2019-05-06T08:20:10.000Z</time>
      </trkpt>
      <trkpt lat="47.87698" lon="-2.77288">
        <ele>176.81</ele>
        <time>2019-05-06T08:20:18.000Z</time>
      </trkpt>
      <trkpt lat="47.87703" lon="-2.77277">
        <ele>180.63</ele>
        <time>2019-05-06T08:20:26.000Z</time>
      </trkpt>
      <trkpt lat="47.87709" lon="-2.77266">
        <ele>178.82</ele>
        <time>2019-05-06T08:20:34.000Z</time>
      </trkpt>
      <trkpt lat="47.87716" lon="-2.77256">
        <ele>179.24</ele>
        <time>2019-05-06T08:20:42.000Z</time>
      </trkpt>
      <trkpt lat="47.87722" lon="-2.77245">
        <ele>176.44</ele>
        <time>2019-05-06T08:20:50.000Z</time>
      </trkpt>
      <trkpt lat="47.87728" lon="-2.77234">
        <ele>176.92</ele>
        <time>2019-05-06T08:20:57.000Z</time>
      </trkpt>
      <trkpt lat="47.87735" lon="-2.77223">
        <ele>176.27</ele>
        <time>2019-05-06T08:21:05.000Z</time>
      </trkpt>
      <trkpt lat="47.87742" lon="-2.77215">
        <ele>182.04</ele>
        <time>2019-05-06T08:21:12.000Z</time>
      </trkpt>
      <trkpt lat="47.87749" lon="-2.77204">
        <ele>182.33</ele>
        <time>2019-05-06T08:21:20.000Z</time>
      </trkpt>
      <trkpt lat="47.87755" lon="-2.77193">
        <ele>179.71</ele>
        <time>2019-05-06T08:21:27.000Z</time>
      </trkpt>
      <trkpt lat="47.87761" lon="-2.77182">
        <ele>178.04</ele>
        <time>2019-05-06T08:21:35.000Z</time>
      </trkpt>
      <trkpt lat="47.87767" lon="-2.7717">
        <ele>176.77</ele>
        <time>2019-05-06T08:21:43.000Z</time>
      </trkpt>
      <trkpt lat="47.87765" lon="-2.77156">
        <ele>168.77</ele>
        <time>2019-05-06T08:21:51.000Z</time>
      </trkpt>
      <trkpt lat="47.87759" lon="-2.77144">
        <ele>166.63</ele>
        <time>2019-05-06T08:22:00.000Z</time>
      </trkpt>
      <trkpt lat="47.87751" lon="-2.77135">
        <ele>165.79</ele>
        <time>2019-05-06T08:22:08.000Z</time>
      </trkpt>
      <trkpt lat="47.87746" lon="-2.77124">
        <ele>163.22</ele>
        <time>2019-05-06T08:22:18.000Z</time>
      </trkpt>
      <trkpt lat="47.8774" lon="-2.77112">
        <ele>164.42</ele>
        <time>2019-05-06T08:22:25.000Z</time>
      </trkpt>
      <trkpt lat="47.87734" lon="-2.77102">
        <ele>161.77</ele>
        <time>2019-05-06T08:22:32.000Z</time>
      </trkpt>
      <trkpt lat="47.87727" lon="-2.77093">
        <ele>159.8</ele>
        <time>2019-05-06T08:22:39.000Z</time>
      </trkpt>
      <trkpt lat="47.87721" lon="-2.77082">
        <ele>160.82</ele>
        <time>2019-05-06T08:22:47.000Z</time>
      </trkpt>
      <trkpt lat="47.87715" lon="-2.7707">
        <ele>160</ele>
        <time>2019-05-06T08:22:56.000Z</time>
      </trkpt>
      <trkpt lat="47.87708" lon="-2.77059">
        <ele>160.18</ele>
        <time>2019-05-06T08:23:04.000Z</time>
      </trkpt>
      <trkpt lat="47.87701" lon="-2.77051">
        <ele>163.31</ele>
        <time>2019-05-06T08:23:11.000Z</time>
      </trkpt>
      <trkpt lat="47.87692" lon="-2.77046">
        <ele>161.85</ele>
        <time>2019-05-06T08:25:33.000Z</time>
      </trkpt>
      <trkpt lat="47.87683" lon="-2.77042">
        <ele>162.39</ele>
        <time>2019-05-06T08:25:44.000Z</time>
      </trkpt>
      <trkpt lat="47.87675" lon="-2.77034">
        <ele>159.64</ele>
        <time>2019-05-06T08:25:53.000Z</time>
      </trkpt>
      <trkpt lat="47.87666" lon="-2.7703">
        <ele>159.19</ele>
        <time>2019-05-06T08:26:02.000Z</time>
      </trkpt>
      <trkpt lat="47.87656" lon="-2.77028">
        <ele>162.41</ele>
        <time>2019-05-06T08:26:11.000Z</time>
      </trkpt>
      <trkpt lat="47.87647" lon="-2.77028">
        <ele>163.86</ele>
        <time>2019-05-06T08:26:19.000Z</time>
      </trkpt>
      <trkpt lat="47.87637" lon="-2.77027">
        <ele>165.16</ele>
        <time>2019-05-06T08:26:29.000Z</time>
      </trkpt>
      <trkpt lat="47.87627" lon="-2.77024">
        <ele>166.49</ele>
        <time>2019-05-06T08:26:36.000Z</time>
      </trkpt>
      <trkpt lat="47.87618" lon="-2.77019">
        <ele>166.7</ele>
        <time>2019-05-06T08:26:43.000Z</time>
      </trkpt>
      <trkpt lat="47.87609" lon="-2.77014">
        <ele>164.52</ele>
        <time>2019-05-06T08:26:50.000Z</time>
      </trkpt>
      <trkpt lat="47.876" lon="-2.77008">
        <ele>159.75</ele>
        <time>2019-05-06T08:26:57.000Z</time>
      </trkpt>
      <trkpt lat="47.87591" lon="-2.77001">
        <ele>159.99</ele>
        <time>2019-05-06T08:27:05.000Z</time>
      </trkpt>
      <trkpt lat="47.87584" lon="-2.76992">
        <ele>161.6</ele>
        <time>2019-05-06T08:27:12.000Z</time>
      </trkpt>
      <trkpt lat="47.87577" lon="-2.76983">
        <ele>162.11</ele>
        <time>2019-05-06T08:27:19.000Z</time>
      </trkpt>
      <trkpt lat="47.8757" lon="-2.76974">
        <ele>164.17</ele>
        <time>2019-05-06T08:27:26.000Z</time>
      </trkpt>
      <trkpt lat="47.87563" lon="-2.76963">
        <ele>162.12</ele>
        <time>2019-05-06T08:27:34.000Z</time>
      </trkpt>
      <trkpt lat="47.87557" lon="-2.76953">
        <ele>161.22</ele>
        <time>2019-05-06T08:27:41.000Z</time>
      </trkpt>
      <trkpt lat="47.8755" lon="-2.76943">
        <ele>162.27</ele>
        <time>2019-05-06T08:27:49.000Z</time>
      </trkpt>
      <trkpt lat="47.87544" lon="-2.76931">
        <ele>163.77</ele>
        <time>2019-05-06T08:27:56.000Z</time>
      </trkpt>
      <trkpt lat="47.87537" lon="-2.76922">
        <ele>164.97</ele>
        <time>2019-05-06T08:28:03.000Z</time>
      </trkpt>
      <trkpt lat="47.87531" lon="-2.76912">
        <ele>167.23</ele>
        <time>2019-05-06T08:28:11.000Z</time>
      </trkpt>
      <trkpt lat="47.87524" lon="-2.769">
        <ele>167.09</ele>
        <time>2019-05-06T08:28:18.000Z</time>
      </trkpt>
      <trkpt lat="47.87518" lon="-2.76889">
        <ele>166.4</ele>
        <time>2019-05-06T08:28:26.000Z</time>
      </trkpt>
      <trkpt lat="47.87511" lon="-2.76878">
        <ele>164.87</ele>
        <time>2019-05-06T08:28:33.000Z</time>
      </trkpt>
      <trkpt lat="47.87504" lon="-2.7687">
        <ele>163.96</ele>
        <time>2019-05-06T08:28:40.000Z</time>
      </trkpt>
      <trkpt lat="47.87497" lon="-2.76861">
        <ele>163.87</ele>
        <time>2019-05-06T08:28:48.000Z</time>
      </trkpt>
      <trkpt lat="47.87489" lon="-2.76851">
        <ele>160.08</ele>
        <time>2019-05-06T08:28:56.000Z</time>
      </trkpt>
      <trkpt lat="47.87481" lon="-2.76845">
        <ele>158.25</ele>
        <time>2019-05-06T08:29:03.000Z</time>
      </trkpt>
      <trkpt lat="47.87471" lon="-2.76839">
        <ele>162.06</ele>
        <time>2019-05-06T08:29:11.000Z</time>
      </trkpt>
      <trkpt lat="47.87462" lon="-2.76836">
        <ele>163.27</ele>
        <time>2019-05-06T08:29:19.000Z</time>
      </trkpt>
      <trkpt lat="47.87454" lon="-2.76831">
        <ele>166.33</ele>
        <time>2019-05-06T08:29:34.000Z</time>
      </trkpt>
      <trkpt lat="47.87459" lon="-2.76819">
        <ele>161.77</ele>
        <time>2019-05-06T08:30:25.000Z</time>
      </trkpt>
      <trkpt lat="47.87469" lon="-2.76813">
        <ele>169.56</ele>
        <time>2019-05-06T08:30:39.000Z</time>
      </trkpt>
      <trkpt lat="47.87476" lon="-2.76804">
        <ele>170.45</ele>
        <time>2019-05-06T08:30:50.000Z</time>
      </trkpt>
      <trkpt lat="47.87483" lon="-2.76793">
        <ele>163.99</ele>
        <time>2019-05-06T08:30:58.000Z</time>
      </trkpt>
      <trkpt lat="47.8749" lon="-2.76783">
        <ele>161.19</ele>
        <time>2019-05-06T08:31:04.000Z</time>
      </trkpt>
      <trkpt lat="47.87494" lon="-2.7677">
        <ele>161.7</ele>
        <time>2019-05-06T08:31:12.000Z</time>
      </trkpt>
      <trkpt lat="47.87493" lon="-2.76756">
        <ele>161.76</ele>
        <time>2019-05-06T08:31:20.000Z</time>
      </trkpt>
      <trkpt lat="47.875" lon="-2.76746">
        <ele>156.96</ele>
        <time>2019-05-06T08:31:28.000Z</time>
      </trkpt>
      <trkpt lat="47.87506" lon="-2.76736">
        <ele>159.34</ele>
        <time>2019-05-06T08:31:36.000Z</time>
      </trkpt>
      <trkpt lat="47.87508" lon="-2.76723">
        <ele>156.44</ele>
        <time>2019-05-06T08:31:42.000Z</time>
      </trkpt>
      <trkpt lat="47.87513" lon="-2.7671">
        <ele>162.4</ele>
        <time>2019-05-06T08:31:48.000Z</time>
      </trkpt>
      <trkpt lat="47.87516" lon="-2.76696">
        <ele>165.74</ele>
        <time>2019-05-06T08:31:56.000Z</time>
      </trkpt>
      <trkpt lat="47.8752" lon="-2.7668">
        <ele>168.02</ele>
        <time>2019-05-06T08:32:06.000Z</time>
      </trkpt>
      <trkpt lat="47.87524" lon="-2.76667">
        <ele>169.68</ele>
        <time>2019-05-06T08:32:13.000Z</time>
      </trkpt>
      <trkpt lat="47.87529" lon="-2.76653">
        <ele>166.75</ele>
        <time>2019-05-06T08:32:20.000Z</time>
      </trkpt>
      <trkpt lat="47.87534" lon="-2.76641">
        <ele>161.76</ele>
        <time>2019-05-06T08:32:28.000Z</time>
      </trkpt>
      <trkpt lat="47.87542" lon="-2.76634">
        <ele>153.47</ele>
        <time>2019-05-06T08:32:37.000Z</time>
      </trkpt>
      <trkpt lat="47.87552" lon="-2.76633">
        <ele>152.61</ele>
        <time>2019-05-06T08:32:44.000Z</time>
      </trkpt>
      <trkpt lat="47.87562" lon="-2.76628">
        <ele>150.57</ele>
        <time>2019-05-06T08:32:53.000Z</time>
      </trkpt>
      <trkpt lat="47.87571" lon="-2.76626">
        <ele>147.15</ele>
        <time>2019-05-06T08:33:01.000Z</time>
      </trkpt>
      <trkpt lat="47.8758" lon="-2.76619">
        <ele>144.9</ele>
        <time>2019-05-06T08:34:20.000Z</time>
      </trkpt>
      <trkpt lat="47.87589" lon="-2.7662">
        <ele>150.3</ele>
        <time>2019-05-06T08:34:29.000Z</time>
      </trkpt>
      <trkpt lat="47.87597" lon="-2.7663">
        <ele>148.54</ele>
        <time>2019-05-06T08:34:43.000Z</time>
      </trkpt>
      <trkpt lat="47.87604" lon="-2.76642">
        <ele>151.78</ele>
        <time>2019-05-06T08:34:51.000Z</time>
      </trkpt>
      <trkpt lat="47.87609" lon="-2.76654">
        <ele>147.15</ele>
        <time>2019-05-06T08:34:59.000Z</time>
      </trkpt>
      <trkpt lat="47.87614" lon="-2.76667">
        <ele>148.14</ele>
        <time>2019-05-06T08:35:08.000Z</time>
      </trkpt>
      <trkpt lat="47.87619" lon="-2.76678">
        <ele>148.85</ele>
        <time>2019-05-06T08:35:18.000Z</time>
      </trkpt>
      <trkpt lat="47.87626" lon="-2.76688">
        <ele>151.18</ele>
        <time>2019-05-06T08:35:25.000Z</time>
      </trkpt>
      <trkpt lat="47.87633" lon="-2.76699">
        <ele>151.27</ele>
        <time>2019-05-06T08:35:32.000Z</time>
      </trkpt>
      <trkpt lat="47.8764" lon="-2.76708">
        <ele>151.16</ele>
        <time>2019-05-06T08:35:39.000Z</time>
      </trkpt>
      <trkpt lat="47.87648" lon="-2.76717">
        <ele>151.49</ele>
        <time>2019-05-06T08:35:47.000Z</time>
      </trkpt>
      <trkpt lat="47.87656" lon="-2.76725">
        <ele>149.42</ele>
        <time>2019-05-06T08:35:55.000Z</time>
      </trkpt>
      <trkpt lat="47.87664" lon="-2.76731">
        <ele>146.77</ele>
        <time>2019-05-06T08:36:01.000Z</time>
      </trkpt>
      <trkpt lat="47.87673" lon="-2.76739">
        <ele>148.58</ele>
        <time>2019-05-06T08:36:09.000Z</time>
      </trkpt>
      <trkpt lat="47.87681" lon="-2.76747">
        <ele>148.8</ele>
        <time>2019-05-06T08:36:16.000Z</time>
      </trkpt>
      <trkpt lat="47.87689" lon="-2.76754">
        <ele>147.62</ele>
        <time>2019-05-06T08:36:25.000Z</time>
      </trkpt>
      <trkpt lat="47.87697" lon="-2.76762">
        <ele>146.73</ele>
        <time>2019-05-06T08:36:34.000Z</time>
      </trkpt>
      <trkpt lat="47.87706" lon="-2.76768">
        <ele>151.02</ele>
        <time>2019-05-06T08:36:41.000Z</time>
      </trkpt>
      <trkpt lat="47.87713" lon="-2.76777">
        <ele>147.72</ele>
        <time>2019-05-06T08:36:49.000Z</time>
      </trkpt>
      <trkpt lat="47.87719" lon="-2.76787">
        <ele>145.85</ele>
        <time>2019-05-06T08:36:56.000Z</time>
      </trkpt>
      <trkpt lat="47.87728" lon="-2.76795">
        <ele>147.29</ele>
        <time>2019-05-06T08:37:04.000Z</time>
      </trkpt>
      <trkpt lat="47.87735" lon="-2.76805">
        <ele>149.25</ele>
        <time>2019-05-06T08:37:11.000Z</time>
      </trkpt>
      <trkpt lat="47.87742" lon="-2.76814">
        <ele>151.41</ele>
        <time>2019-05-06T08:37:18.000Z</time>
      </trkpt>
      <trkpt lat="47.87749" lon="-2.76823">
        <ele>155.5</ele>
        <time>2019-05-06T08:37:24.000Z</time>
      </trkpt>
      <trkpt lat="47.87757" lon="-2.76833">
        <ele>159.05</ele>
        <time>2019-05-06T08:37:31.000Z</time>
      </trkpt>
      <trkpt lat="47.87764" lon="-2.76844">
        <ele>162.84</ele>
        <time>2019-05-06T08:37:38.000Z</time>
      </trkpt>
      <trkpt lat="47.87771" lon="-2.76855">
        <ele>160.96</ele>
        <time>2019-05-06T08:37:46.000Z</time>
      </trkpt>
      <trkpt lat="47.87775" lon="-2.76867">
        <ele>160.46</ele>
        <time>2019-05-06T08:37:53.000Z</time>
      </trkpt>
      <trkpt lat="47.87779" lon="-2.76881">
        <ele>162.24</ele>
        <time>2019-05-06T08:38:01.000Z</time>
      </trkpt>
      <trkpt lat="47.87781" lon="-2.76894">
        <ele>159.76</ele>
        <time>2019-05-06T08:38:11.000Z</time>
      </trkpt>
      <trkpt lat="47.87783" lon="-2.76907">
        <ele>160.58</ele>
        <time>2019-05-06T08:38:19.000Z</time>
      </trkpt>
      <trkpt lat="47.87787" lon="-2.76921">
        <ele>159.02</ele>
        <time>2019-05-06T08:38:27.000Z</time>
      </trkpt>
      <trkpt lat="47.87791" lon="-2.76933">
        <ele>156.62</ele>
        <time>2019-05-06T08:38:34.000Z</time>
      </trkpt>
      <trkpt lat="47.87794" lon="-2.76946">
        <ele>155.57</ele>
        <time>2019-05-06T08:38:42.000Z</time>
      </trkpt>
      <trkpt lat="47.87797" lon="-2.76961">
        <ele>155.63</ele>
        <time>2019-05-06T08:38:50.000Z</time>
      </trkpt>
      <trkpt lat="47.87802" lon="-2.76972">
        <ele>155.41</ele>
        <time>2019-05-06T08:38:58.000Z</time>
      </trkpt>
      <trkpt lat="47.87806" lon="-2.76985">
        <ele>154.03</ele>
        <time>2019-05-06T08:39:06.000Z</time>
      </trkpt>
      <trkpt lat="47.8781" lon="-2.76998">
        <ele>154.84</ele>
        <time>2019-05-06T08:39:13.000Z</time>
      </trkpt>
      <trkpt lat="47.87816" lon="-2.7701">
        <ele>155.58</ele>
        <time>2019-05-06T08:39:21.000Z</time>
      </trkpt>
      <trkpt lat="47.87824" lon="-2.77019">
        <ele>154.04</ele>
        <time>2019-05-06T08:39:28.000Z</time>
      </trkpt>
      <trkpt lat="47.87832" lon="-2.77027">
        <ele>161.37</ele>
        <time>2019-05-06T08:40:32.000Z</time>
      </trkpt>
      <trkpt lat="47.87841" lon="-2.77025">
        <ele>159.18</ele>
        <time>2019-05-06T08:40:41.000Z</time>
      </trkpt>
      <trkpt lat="47.8785" lon="-2.77025">
        <ele>161.83</ele>
        <time>2019-05-06T08:40:49.000Z</time>
      </trkpt>
      <trkpt lat="47.87859" lon="-2.77026">
        <ele>162.2</ele>
        <time>2019-05-06T08:40:56.000Z</time>
      </trkpt>
      <trkpt lat="47.87869" lon="-2.77028">
        <ele>164.31</ele>
        <time>2019-05-06T08:41:03.000Z</time>
      </trkpt>
      <trkpt lat="47.87879" lon="-2.7703">
        <ele>164.1</ele>
        <time>2019-05-06T08:41:11.000Z</time>
      </trkpt>
      <trkpt lat="47.87889" lon="-2.77031">
        <ele>163.51</ele>
        <time>2019-05-06T08:41:19.000Z</time>
      </trkpt>
      <trkpt lat="47.87898" lon="-2.77034">
        <ele>162.85</ele>
        <time>2019-05-06T08:41:27.000Z</time>
      </trkpt>
      <trkpt lat="47.87907" lon="-2.77038">
        <ele>163.22</ele>
        <time>2019-05-06T08:41:35.000Z</time>
      </trkpt>
      <trkpt lat="47.87917" lon="-2.77035">
        <ele>160.36</ele>
        <time>2019-05-06T08:41:44.000Z</time>
      </trkpt>
      <trkpt lat="47.8792" lon="-2.77021">
        <ele>158.46</ele>
        <time>2019-05-06T08:41:53.000Z</time>
      </trkpt>
      <trkpt lat="47.87927" lon="-2.77013">
        <ele>160.62</ele>
        <time>2019-05-06T08:42:01.000Z</time>
      </trkpt>
      <trkpt lat="47.87936" lon="-2.77016">
        <ele>165.94</ele>
        <time>2019-05-06T08:42:11.000Z</time>
      </trkpt>
      <trkpt lat="47.87946" lon="-2.77019">
        <ele>167.97</ele>
        <time>2019-05-06T08:42:19.000Z</time>
      </trkpt>
      <trkpt lat="47.87955" lon="-2.77022">
        <ele>170.05</ele>
        <time>2019-05-06T08:42:27.000Z</time>
      </trkpt>
      <trkpt lat="47.87964" lon="-2.77024">
        <ele>175.93</ele>
        <time>2019-05-06T08:42:36.000Z</time>
      </trkpt>
      <trkpt lat="47.87973" lon="-2.77026">
        <ele>175.61</ele>
        <time>2019-05-06T08:42:45.000Z</time>
      </trkpt>
      <trkpt lat="47.87978" lon="-2.77038">
        <ele>176.16</ele>
        <time>2019-05-06T08:42:53.000Z</time>
      </trkpt>
      <trkpt lat="47.87978" lon="-2.77052">
        <ele>169.98</ele>
        <time>2019-05-06T08:43:01.000Z</time>
      </trkpt>
      <trkpt lat="47.87985" lon="-2.77063">
        <ele>169.1</ele>
        <time>2019-05-06T08:43:10.000Z</time>
      </trkpt>
      <trkpt lat="47.87994" lon="-2.77065">
        <ele>174.8</ele>
        <time>2019-05-06T08:43:17.000Z</time>
      </trkpt>
      <trkpt lat="47.88004" lon="-2.77068">
        <ele>178.15</ele>
        <time>2019-05-06T08:43:26.000Z</time>
      </trkpt>
      <trkpt lat="47.88005" lon="-2.77054">
        <ele>177.8</ele>
        <time>2019-05-06T08:43:35.000Z</time>
      </trkpt>
      <trkpt lat="47.88013" lon="-2.77046">
        <ele>181.64</ele>
        <time>2019-05-06T08:44:35.000Z</time>
      </trkpt>
      <trkpt lat="47.88022" lon="-2.77052">
        <ele>178.75</ele>
        <time>2019-05-06T08:44:43.000Z</time>
      </trkpt>
      <trkpt lat="47.8803" lon="-2.77058">
        <ele>177.9</ele>
        <time>2019-05-06T08:44:53.000Z</time>
      </trkpt>
      <trkpt lat="47.88039" lon="-2.77063">
        <ele>179.42</ele>
        <time>2019-05-06T08:45:02.000Z</time>
      </trkpt>
      <trkpt lat="47.88047" lon="-2.77069">
        <ele>179.86</ele>
        <time>2019-05-06T08:45:09.000Z</time>
      </trkpt>
      <trkpt lat="47.88057" lon="-2.77074">
        <ele>175.08</ele>
        <time>2019-05-06T08:45:17.000Z</time>
      </trkpt>
      <trkpt lat="47.88065" lon="-2.77079">
        <ele>174.56</ele>
        <time>2019-05-06T08:45:24.000Z</time>
      </trkpt>
      <trkpt lat="47.88074" lon="-2.77085">
        <ele>172.27</ele>
        <time>2019-05-06T08:45:32.000Z</time>
      </trkpt>
      <trkpt lat="47.88083" lon="-2.77081">
        <ele>174.1</ele>
        <time>2019-05-06T08:45:45.000Z</time>
      </trkpt>
      <trkpt lat="47.88092" lon="-2.77085">
        <ele>178.51</ele>
        <time>2019-05-06T08:45:59.000Z</time>
      </trkpt>
      <trkpt lat="47.88102" lon="-2.77087">
        <ele>174.35</ele>
        <time>2019-05-06T08:46:59.000Z</time>
      </trkpt>
      <trkpt lat="47.88111" lon="-2.77091">
        <ele>174.36</ele>
        <time>2019-05-06T08:47:07.000Z</time>
      </trkpt>
      <trkpt lat="47.8812" lon="-2.77095">
        <ele>172.55</ele>
        <time>2019-05-06T08:47:16.000Z</time>
      </trkpt>
      <trkpt lat="47.88129" lon="-2.77096">
        <ele>172.27</ele>
        <time>2019-05-06T08:47:23.000Z</time>
      </trkpt>
      <trkpt lat="47.88139" lon="-2.771">
        <ele>172.6</ele>
        <time>2019-05-06T08:47:32.000Z</time>
      </trkpt>
      <trkpt lat="47.88149" lon="-2.77103">
        <ele>168.77</ele>
        <time>2019-05-06T08:47:41.000Z</time>
      </trkpt>
      <trkpt lat="47.88159" lon="-2.77107">
        <ele>167.62</ele>
        <time>2019-05-06T08:47:48.000Z</time>
      </trkpt>
      <trkpt lat="47.88168" lon="-2.77106">
        <ele>177.75</ele>
        <time>2019-05-06T08:47:55.000Z</time>
      </trkpt>
      <trkpt lat="47.88178" lon="-2.77108">
        <ele>173.19</ele>
        <time>2019-05-06T08:48:04.000Z</time>
      </trkpt>
      <trkpt lat="47.88187" lon="-2.77109">
        <ele>168.96</ele>
        <time>2019-05-06T08:48:13.000Z</time>
      </trkpt>
      <trkpt lat="47.88197" lon="-2.77111">
        <ele>171.77</ele>
        <time>2019-05-06T08:48:21.000Z</time>
      </trkpt>
      <trkpt lat="47.88205" lon="-2.77113">
        <ele>167</ele>
        <time>2019-05-06T08:48:27.000Z</time>
      </trkpt>
      <trkpt lat="47.88215" lon="-2.77114">
        <ele>164.83</ele>
        <time>2019-05-06T08:48:35.000Z</time>
      </trkpt>
      <trkpt lat="47.88225" lon="-2.77114">
        <ele>159.24</ele>
        <time>2019-05-06T08:48:43.000Z</time>
      </trkpt>
      <trkpt lat="47.88235" lon="-2.77112">
        <ele>161.18</ele>
        <time>2019-05-06T08:48:51.000Z</time>
      </trkpt>
      <trkpt lat="47.88245" lon="-2.7711">
        <ele>159.34</ele>
        <time>2019-05-06T08:49:01.000Z</time>
      </trkpt>
      <trkpt lat="47.88255" lon="-2.7711">
        <ele>160.05</ele>
        <time>2019-05-06T08:49:09.000Z</time>
      </trkpt>
      <trkpt lat="47.88265" lon="-2.77107">
        <ele>157.66</ele>
        <time>2019-05-06T08:49:18.000Z</time>
      </trkpt>
      <trkpt lat="47.88274" lon="-2.77107">
        <ele>160.29</ele>
        <time>2019-05-06T08:49:24.000Z</time>
      </trkpt>
      <trkpt lat="47.88283" lon="-2.77111">
        <ele>158.92</ele>
        <time>2019-05-06T08:49:32.000Z</time>
      </trkpt>
      <trkpt lat="47.88292" lon="-2.7712">
        <ele>155.97</ele>
        <time>2019-05-06T08:49:37.000Z</time>
      </trkpt>
      <trkpt lat="47.883" lon="-2.77128">
        <ele>152.02</ele>
        <time>2019-05-06T08:49:45.000Z</time>
      </trkpt>
      <trkpt lat="47.88307" lon="-2.77139">
        <ele>151.7</ele>
        <time>2019-05-06T08:49:55.000Z</time>
      </trkpt>
      <trkpt lat="47.88314" lon="-2.77146">
        <ele>158.48</ele>
        <time>2019-05-06T08:50:00.000Z</time>
      </trkpt>
      <trkpt lat="47.8832" lon="-2.77157">
        <ele>159.23</ele>
        <time>2019-05-06T08:50:08.000Z</time>
      </trkpt>
      <trkpt lat="47.88325" lon="-2.77169">
        <ele>153.46</ele>
        <time>2019-05-06T08:50:16.000Z</time>
      </trkpt>
      <trkpt lat="47.88332" lon="-2.7718">
        <ele>152.99</ele>
        <time>2019-05-06T08:50:23.000Z</time>
      </trkpt>
      <trkpt lat="47.88335" lon="-2.77193">
        <ele>144.95</ele>
        <time>2019-05-06T08:51:22.000Z</time>
      </trkpt>
      <trkpt lat="47.88339" lon="-2.77206">
        <ele>147.82</ele>
        <time>2019-05-06T08:51:29.000Z</time>
      </trkpt>
      <trkpt lat="47.88341" lon="-2.77219">
        <ele>147.78</ele>
        <time>2019-05-06T08:51:36.000Z</time>
      </trkpt>
      <trkpt lat="47.88346" lon="-2.77231">
        <ele>149.39</ele>
        <time>2019-05-06T08:51:43.000Z</time>
      </trkpt>
      <trkpt lat="47.88348" lon="-2.77244">
        <ele>149.44</ele>
        <time>2019-05-06T08:51:52.000Z</time>
      </trkpt>
      <trkpt lat="47.88349" lon="-2.77258">
        <ele>150.18</ele>
        <time>2019-05-06T08:51:58.000Z</time>
      </trkpt>
      <trkpt lat="47.8835" lon="-2.77271">
        <ele>155.89</ele>
        <time>2019-05-06T08:52:07.000Z</time>
      </trkpt>
      <trkpt lat="47.8835" lon="-2.77285">
        <ele>162.53</ele>
        <time>2019-05-06T08:52:18.000Z</time>
      </trkpt>
      <trkpt lat="47.88346" lon="-2.77298">
        <ele>164.09</ele>
        <time>2019-05-06T08:52:25.000Z</time>
      </trkpt>
      <trkpt lat="47.88346" lon="-2.77312">
        <ele>159.33</ele>
        <time>2019-05-06T08:52:33.000Z</time>
      </trkpt>
      <trkpt lat="47.88347" lon="-2.77326">
        <ele>157.67</ele>
        <time>2019-05-06T08:52:41.000Z</time>
      </trkpt>
      <trkpt lat="47.88345" lon="-2.77342">
        <ele>151.74</ele>
        <time>2019-05-06T08:52:51.000Z</time>
      </trkpt>
      <trkpt lat="47.88341" lon="-2.77354">
        <ele>167.15</ele>
        <time>2019-05-06T08:52:57.000Z</time>
      </trkpt>
      <trkpt lat="47.88335" lon="-2.77364">
        <ele>155.02</ele>
        <time>2019-05-06T08:53:02.000Z</time>
      </trkpt>
      <trkpt lat="47.88327" lon="-2.77373">
        <ele>153.66</ele>
        <time>2019-05-06T08:53:08.000Z</time>
      </trkpt>
      <trkpt lat="47.88323" lon="-2.77385">
        <ele>154.09</ele>
        <time>2019-05-06T08:53:14.000Z</time>
      </trkpt>
      <trkpt lat="47.88317" lon="-2.77395">
        <ele>147.74</ele>
        <time>2019-05-06T08:53:23.000Z</time>
      </trkpt>
      <trkpt lat="47.8831" lon="-2.77405">
        <ele>141.96</ele>
        <time>2019-05-06T08:53:31.000Z</time>
      </trkpt>
      <trkpt lat="47.88301" lon="-2.7741">
        <ele>142.16</ele>
        <time>2019-05-06T08:53:38.000Z</time>
      </trkpt>
      <trkpt lat="47.88293" lon="-2.77417">
        <ele>143.38</ele>
        <time>2019-05-06T08:53:47.000Z</time>
      </trkpt>
      <trkpt lat="47.88284" lon="-2.77423">
        <ele>143.69</ele>
        <time>2019-05-06T08:53:53.000Z</time>
      </trkpt>
      <trkpt lat="47.88289" lon="-2.77434">
        <ele>146.98</ele>
        <time>2019-05-06T08:54:11.000Z</time>
      </trkpt>
      <trkpt lat="47.88292" lon="-2.77448">
        <ele>147.34</ele>
        <time>2019-05-06T08:54:18.000Z</time>
      </trkpt>
      <trkpt lat="47.88291" lon="-2.77463">
        <ele>148.94</ele>
        <time>2019-05-06T08:54:27.000Z</time>
      </trkpt>
      <trkpt lat="47.88288" lon="-2.77478">
        <ele>147.97</ele>
        <time>2019-05-06T08:54:34.000Z</time>
      </trkpt>
      <trkpt lat="47.88288" lon="-2.77492">
        <ele>149.63</ele>
        <time>2019-05-06T08:54:41.000Z</time>
      </trkpt>
      <trkpt lat="47.88284" lon="-2.77505">
        <ele>147.35</ele>
        <time>2019-05-06T08:54:48.000Z</time>
      </trkpt>
      <trkpt lat="47.88281" lon="-2.77518">
        <ele>145.73</ele>
        <time>2019-05-06T08:54:55.000Z</time>
      </trkpt>
      <trkpt lat="47.88277" lon="-2.77531">
        <ele>146.36</ele>
        <time>2019-05-06T08:55:04.000Z</time>
      </trkpt>
      <trkpt lat="47.88276" lon="-2.77545">
        <ele>141.23</ele>
        <time>2019-05-06T08:55:12.000Z</time>
      </trkpt>
      <trkpt lat="47.88272" lon="-2.77558">
        <ele>138.71</ele>
        <time>2019-05-06T08:55:20.000Z</time>
      </trkpt>
      <trkpt lat="47.88268" lon="-2.77571">
        <ele>141.2</ele>
        <time>2019-05-06T08:55:28.000Z</time>
      </trkpt>
      <trkpt lat="47.88265" lon="-2.77585">
        <ele>141.91</ele>
        <time>2019-05-06T08:55:36.000Z</time>
      </trkpt>
      <trkpt lat="47.88259" lon="-2.77596">
        <ele>143.55</ele>
        <time>2019-05-06T08:55:44.000Z</time>
      </trkpt>
      <trkpt lat="47.8825" lon="-2.77603">
        <ele>141.65</ele>
        <time>2019-05-06T08:55:52.000Z</time>
      </trkpt>
      <trkpt lat="47.88244" lon="-2.77615">
        <ele>143.12</ele>
        <time>2019-05-06T08:55:58.000Z</time>
      </trkpt>
      <trkpt lat="47.88236" lon="-2.77624">
        <ele>145.58</ele>
        <time>2019-05-06T08:56:04.000Z</time>
      </trkpt>
      <trkpt lat="47.88227" lon="-2.77627">
        <ele>145.94</ele>
        <time>2019-05-06T08:56:10.000Z</time>
      </trkpt>
      <trkpt lat="47.88218" lon="-2.7763">
        <ele>145.75</ele>
        <time>2019-05-06T08:56:18.000Z</time>
      </trkpt>
      <trkpt lat="47.88208" lon="-2.77634">
        <ele>151.01</ele>
        <time>2019-05-06T08:56:27.000Z</time>
      </trkpt>
      <trkpt lat="47.88199" lon="-2.77635">
        <ele>153.9</ele>
        <time>2019-05-06T08:56:35.000Z</time>
      </trkpt>
      <trkpt lat="47.88192" lon="-2.77626">
        <ele>154.87</ele>
        <time>2019-05-06T08:56:43.000Z</time>
      </trkpt>
      <trkpt lat="47.88186" lon="-2.77614">
        <ele>154.82</ele>
        <time>2019-05-06T08:56:51.000Z</time>
      </trkpt>
      <trkpt lat="47.88179" lon="-2.77602">
        <ele>156.55</ele>
        <time>2019-05-06T08:57:00.000Z</time>
      </trkpt>
      <trkpt lat="47.8817" lon="-2.776">
        <ele>157.5</ele>
        <time>2019-05-06T08:58:41.000Z</time>
      </trkpt>
      <trkpt lat="47.8816" lon="-2.77602">
        <ele>154.13</ele>
        <time>2019-05-06T08:58:51.000Z</time>
      </trkpt>
      <trkpt lat="47.88151" lon="-2.77606">
        <ele>156.93</ele>
        <time>2019-05-06T08:59:00.000Z</time>
      </trkpt>
      <trkpt lat="47.88142" lon="-2.77613">
        <ele>161.87</ele>
        <time>2019-05-06T08:59:08.000Z</time>
      </trkpt>
      <trkpt lat="47.88133" lon="-2.77617">
        <ele>162.38</ele>
        <time>2019-05-06T08:59:17.000Z</time>
      </trkpt>
      <trkpt lat="47.88124" lon="-2.77619">
        <ele>162.59</ele>
        <time>2019-05-06T08:59:25.000Z</time>
      </trkpt>
      <trkpt lat="47.88115" lon="-2.77622">
        <ele>163.5</ele>
        <time>2019-05-06T08:59:38.000Z</time>
      </trkpt>
      <trkpt lat="47.88105" lon="-2.77624">
        <ele>163.4</ele>
        <time>2019-05-06T08:59:48.000Z</time>
      </trkpt>
      <trkpt lat="47.88098" lon="-2.77614">
        <ele>162.91</ele>
        <time>2019-05-06T08:59:56.000Z</time>
      </trkpt>
      <trkpt lat="47.88092" lon="-2.77604">
        <ele>162.94</ele>
        <time>2019-05-06T09:00:05.000Z</time>
      </trkpt>
      <trkpt lat="47.88084" lon="-2.7761">
        <ele>162.92</ele>
        <time>2019-05-06T09:01:09.000Z</time>
      </trkpt>
      <trkpt lat="47.88076" lon="-2.77616">
        <ele>161.63</ele>
        <time>2019-05-06T09:01:16.000Z</time>
      </trkpt>
      <trkpt lat="47.88068" lon="-2.77624">
        <ele>161.86</ele>
        <time>2019-05-06T09:01:24.000Z</time>
      </trkpt>
      <trkpt lat="47.88061" lon="-2.77632">
        <ele>163.2</ele>
        <time>2019-05-06T09:01:32.000Z</time>
      </trkpt>
      <trkpt lat="47.88053" lon="-2.7764">
        <ele>165.07</ele>
        <time>2019-05-06T09:01:40.000Z</time>
      </trkpt>
      <trkpt lat="47.88044" lon="-2.77646">
        <ele>163.94</ele>
        <time>2019-05-06T09:01:48.000Z</time>
      </trkpt>
      <trkpt lat="47.88036" lon="-2.77639">
        <ele>164.26</ele>
        <time>2019-05-06T09:01:56.000Z</time>
      </trkpt>
      <trkpt lat="47.8803" lon="-2.77628">
        <ele>165.51</ele>
        <time>2019-05-06T09:02:04.000Z</time>
      </trkpt>
      <trkpt lat="47.88024" lon="-2.77618">
        <ele>166.71</ele>
        <time>2019-05-06T09:02:12.000Z</time>
      </trkpt>
      <trkpt lat="47.88014" lon="-2.77621">
        <ele>162.6</ele>
        <time>2019-05-06T09:02:22.000Z</time>
      </trkpt>
      <trkpt lat="47.88007" lon="-2.7763">
        <ele>163.18</ele>
        <time>2019-05-06T09:02:29.000Z</time>
      </trkpt>
      <trkpt lat="47.87999" lon="-2.77638">
        <ele>162.59</ele>
        <time>2019-05-06T09:02:36.000Z</time>
      </trkpt>
      <trkpt lat="47.87991" lon="-2.77644">
        <ele>161.52</ele>
        <time>2019-05-06T09:02:43.000Z</time>
      </trkpt>
      <trkpt lat="47.87984" lon="-2.77653">
        <ele>161.15</ele>
        <time>2019-05-06T09:02:50.000Z</time>
      </trkpt>
      <trkpt lat="47.87977" lon="-2.77664">
        <ele>161.97</ele>
        <time>2019-05-06T09:02:58.000Z</time>
      </trkpt>
      <trkpt lat="47.87969" lon="-2.77672">
        <ele>164.16</ele>
        <time>2019-05-06T09:03:06.000Z</time>
      </trkpt>
      <trkpt lat="47.8796" lon="-2.77668">
        <ele>166.96</ele>
        <time>2019-05-06T09:03:14.000Z</time>
      </trkpt>
      <trkpt lat="47.87955" lon="-2.77657">
        <ele>164.95</ele>
        <time>2019-05-06T09:03:21.000Z</time>
      </trkpt>
      <trkpt lat="47.87951" lon="-2.77643">
        <ele>164.1</ele>
        <time>2019-05-06T09:03:30.000Z</time>
      </trkpt>
      <trkpt lat="47.87948" lon="-2.7763">
        <ele>161.86</ele>
        <time>2019-05-06T09:03:38.000Z</time>
      </trkpt>
      <trkpt lat="47.87943" lon="-2.77618">
        <ele>158.91</ele>
        <time>2019-05-06T09:03:45.000Z</time>
      </trkpt>
      <trkpt lat="47.87938" lon="-2.77605">
        <ele>163.32</ele>
        <time>2019-05-06T09:03:54.000Z</time>
      </trkpt>
      <trkpt lat="47.87933" lon="-2.77591">
        <ele>165.61</ele>
        <time>2019-05-06T09:04:02.000Z</time>
      </trkpt>
      <trkpt lat="47.87934" lon="-2.77577">
        <ele>168.69</ele>
        <time>2019-05-06T09:04:09.000Z</time>
      </trkpt>
      <trkpt lat="47.8794" lon="-2.77565">
        <ele>168.98</ele>
        <time>2019-05-06T09:04:17.000Z</time>
      </trkpt>
      <trkpt lat="47.87944" lon="-2.77553">
        <ele>170.73</ele>
        <time>2019-05-06T09:04:23.000Z</time>
      </trkpt>
      <trkpt lat="47.87951" lon="-2.77543">
        <ele>171.69</ele>
        <time>2019-05-06T09:04:29.000Z</time>
      </trkpt>
      <trkpt lat="47.87958" lon="-2.77535">
        <ele>174.38</ele>
        <time>2019-05-06T09:04:36.000Z</time>
      </trkpt>
      <trkpt lat="47.87963" lon="-2.77523">
        <ele>176.69</ele>
        <time>2019-05-06T09:04:43.000Z</time>
      </trkpt>
      <trkpt lat="47.87964" lon="-2.77508">
        <ele>178.23</ele>
        <time>2019-05-06T09:04:51.000Z</time>
      </trkpt>
      <trkpt lat="47.87966" lon="-2.77494">
        <ele>179.04</ele>
        <time>2019-05-06T09:05:00.000Z</time>
      </trkpt>
      <trkpt lat="47.87962" lon="-2.77482">
        <ele>176.62</ele>
        <time>2019-05-06T09:05:12.000Z</time>
      </trkpt>
      <trkpt lat="47.87955" lon="-2.77473">
        <ele>176.99</ele>
        <time>2019-05-06T09:05:23.000Z</time>
      </trkpt>
      <trkpt lat="47.87945" lon="-2.77469">
        <ele>175.27</ele>
        <time>2019-05-06T09:05:31.000Z</time>
      </trkpt>
      <trkpt lat="47.87935" lon="-2.77466">
        <ele>173.67</ele>
        <time>2019-05-06T09:05:40.000Z</time>
      </trkpt>
      <trkpt lat="47.87926" lon="-2.77463">
        <ele>173.55</ele>
        <time>2019-05-06T09:05:48.000Z</time>
      </trkpt>
      <trkpt lat="47.87916" lon="-2.7746">
        <ele>175.03</ele>
        <time>2019-05-06T09:06:00.000Z</time>
      </trkpt>
      <trkpt lat="47.87906" lon="-2.77459">
        <ele>174.43</ele>
        <time>2019-05-06T09:06:08.000Z</time>
      </trkpt>
      <trkpt lat="47.87898" lon="-2.77452">
        <ele>175.79</ele>
        <time>2019-05-06T09:06:15.000Z</time>
      </trkpt>
      <trkpt lat="47.8789" lon="-2.77445">
        <ele>172.14</ele>
        <time>2019-05-06T09:06:34.000Z</time>
      </trkpt>
      <trkpt lat="47.87885" lon="-2.77431">
        <ele>173.11</ele>
        <time>2019-05-06T09:06:45.000Z</time>
      </trkpt>
      <trkpt lat="47.87876" lon="-2.77426">
        <ele>177.34</ele>
        <time>2019-05-06T09:06:53.000Z</time>
      </trkpt>
      <trkpt lat="47.87867" lon="-2.7742">
        <ele>178.77</ele>
        <time>2019-05-06T09:07:01.000Z</time>
      </trkpt>
      <trkpt lat="47.87859" lon="-2.77415">
        <ele>180.07</ele>
        <time>2019-05-06T09:07:08.000Z</time>
      </trkpt>
      <trkpt lat="47.87851" lon="-2.7741">
        <ele>178.46</ele>
        <time>2019-05-06T09:07:17.000Z</time>
      </trkpt>
      <trkpt lat="47.87841" lon="-2.77407">
        <ele>176</ele>
        <time>2019-05-06T09:07:26.000Z</time>
      </trkpt>
      <trkpt lat="47.87832" lon="-2.77405">
        <ele>177.76</ele>
        <time>2019-05-06T09:07:36.000Z</time>
      </trkpt>
      <trkpt lat="47.87826" lon="-2.77416">
        <ele>175.38</ele>
        <time>2019-05-06T09:07:45.000Z</time>
      </trkpt>
    </trkseg>
  </trk>
</gpx>